createdAt,value
2022-09-16T00:01:01.482Z,3.10
2022-09-16T00:03:29.229Z,5.28
2022-09-16T00:05:56.919Z,3.00
2022-09-16T00:08:24.615Z,3.30
2022-09-16T00:10:52.405Z,6.12
2022-09-16T00:13:20.517Z,2.92
2022-09-16T00:15:51.984Z,4.32
2022-09-16T00:18:21.508Z,3.22
2022-09-16T00:20:51.938Z,3.92
2022-09-16T00:23:20.433Z,7.62
2022-09-16T00:25:54.938Z,2.65
2022-09-16T00:28:24.176Z,3.37
2022-09-16T00:30:52.106Z,5.15
2022-09-16T00:33:21.037Z,5.18
2022-09-16T00:35:49.099Z,6.22
2022-09-16T00:38:16.815Z,3.45
2022-09-16T00:40:46.697Z,3.08
2022-09-16T00:43:16.324Z,3.42
2022-09-16T00:45:47.202Z,2.87
2022-09-16T00:48:22.332Z,2.87
2022-09-16T00:50:55.551Z,4.75
2022-09-16T00:53:28.871Z,4.82
2022-09-16T00:56:00.849Z,4.03
2022-09-16T00:58:42.299Z,5.07
2022-09-16T01:01:10.136Z,3.10
2022-09-16T01:04:01.193Z,5.00
2022-09-16T01:06:30.290Z,3.92
2022-09-16T01:08:58.863Z,6.47
2022-09-16T01:11:26.662Z,4.85
2022-09-16T01:13:54.943Z,3.05
2022-09-16T01:16:30.246Z,6.87
2022-09-16T01:19:23.813Z,4.75
2022-09-16T01:22:26.864Z,4.68
2022-09-16T01:25:18.610Z,3.37
2022-09-16T01:28:14.155Z,6.60
2022-09-16T01:30:51.623Z,3.80
2022-09-16T01:33:32.733Z,4.55
2022-09-16T01:36:10.353Z,6.12
2022-09-16T01:39:03.660Z,2.53
2022-09-16T01:41:59.027Z,3.97
2022-09-16T01:45:08.112Z,3.25
2022-09-16T01:47:35.662Z,3.53
2022-09-16T01:50:26.507Z,4.20
2022-09-16T01:53:21.684Z,3.55
2022-09-16T01:55:55.613Z,3.17
2022-09-16T01:58:29.306Z,3.33
2022-09-16T02:01:03.561Z,3.10
2022-09-16T02:03:35.683Z,4.05
2022-09-16T02:06:09.538Z,4.25
2022-09-16T02:08:50.879Z,3.55
2022-09-16T02:11:20.062Z,3.08
2022-09-16T02:14:32.401Z,4.25
2022-09-16T02:17:05.297Z,3.47
2022-09-16T02:19:38.864Z,2.65
2022-09-16T02:22:12.530Z,4.47
2022-09-16T02:24:42.626Z,5.53
2022-09-16T02:27:20.904Z,5.68
2022-09-16T02:29:58.591Z,2.90
2022-09-16T02:32:30.174Z,3.45
2022-09-16T02:35:00.152Z,3.50
2022-09-16T02:37:53.347Z,6.60
2022-09-16T02:40:26.197Z,4.82
2022-09-16T02:42:54.395Z,4.50
2022-09-16T02:45:27.393Z,4.28
2022-09-16T02:48:21.418Z,4.30
2022-09-16T02:50:56.057Z,5.18
2022-09-16T02:54:01.208Z,4.30
2022-09-16T02:56:33.731Z,4.25
2022-09-16T02:59:02.281Z,4.95
2022-09-16T03:01:34.739Z,6.12
2022-09-16T03:04:02.661Z,4.28
2022-09-16T03:06:30.838Z,4.20
2022-09-16T03:09:02.066Z,4.87
2022-09-16T03:11:48.657Z,5.45
2022-09-16T03:14:25.284Z,4.78
2022-09-16T03:17:19.495Z,6.57
2022-09-16T03:19:47.128Z,5.70
2022-09-16T03:22:27.999Z,5.12
2022-09-16T03:25:20.377Z,4.80
2022-09-16T03:28:09.120Z,5.80
2022-09-16T03:30:43.804Z,4.35
2022-09-16T03:33:24.716Z,5.80
2022-09-16T03:35:55.489Z,4.72
2022-09-16T03:38:23.703Z,5.20
2022-09-16T03:40:51.918Z,6.53
2022-09-16T03:43:19.701Z,4.65
2022-09-16T03:45:47.431Z,4.70
2022-09-16T03:48:15.382Z,4.90
2022-09-16T03:50:43.058Z,4.60
2022-09-16T03:53:10.901Z,5.03
2022-09-16T03:55:38.559Z,5.50
2022-09-16T03:58:06.216Z,4.30
2022-09-16T04:00:34.195Z,5.97
2022-09-16T04:03:02.433Z,7.68
2022-09-16T04:05:30.329Z,3.92
2022-09-16T04:07:58.005Z,5.37
2022-09-16T04:10:25.701Z,6.40
2022-09-16T04:12:58.698Z,6.32
2022-09-16T04:15:29.496Z,5.43
2022-09-16T04:17:57.466Z,6.10
2022-09-16T04:20:25.114Z,4.60
2022-09-16T04:22:52.791Z,5.62
2022-09-16T04:25:20.429Z,5.97
2022-09-16T04:27:48.063Z,4.80
2022-09-16T04:30:15.781Z,6.22
2022-09-16T04:32:43.450Z,5.93
2022-09-16T04:35:11.109Z,6.85
2022-09-16T04:37:38.692Z,6.32
2022-09-16T04:40:06.828Z,6.05
2022-09-16T04:42:34.494Z,7.40
2022-09-16T04:45:02.151Z,5.87
2022-09-16T04:47:30.514Z,5.62
2022-09-16T04:49:58.210Z,4.53
2022-09-16T04:52:25.986Z,6.07
2022-09-16T04:54:53.597Z,4.72
2022-09-16T04:57:21.233Z,5.12
2022-09-16T04:59:48.876Z,5.05
2022-09-16T05:02:16.449Z,5.50
2022-09-16T05:04:44.050Z,5.15
2022-09-16T05:07:11.842Z,4.62
2022-09-16T05:09:39.439Z,5.62
2022-09-16T05:12:07.817Z,4.30
2022-09-16T05:14:35.584Z,5.18
2022-09-16T05:17:03.233Z,4.43
2022-09-16T05:19:30.853Z,8.32
2022-09-16T05:21:58.448Z,4.90
2022-09-16T05:24:26.104Z,6.30
2022-09-16T05:26:53.762Z,4.15
2022-09-16T05:29:21.546Z,4.00
2022-09-16T05:31:49.403Z,4.12
2022-09-16T05:34:20.488Z,3.92
2022-09-16T05:36:50.532Z,4.40
2022-09-16T05:39:24.215Z,5.30
2022-09-16T05:41:56.497Z,5.22
2022-09-16T05:44:24.894Z,6.00
2022-09-16T05:46:53.354Z,7.07
2022-09-16T05:49:21.825Z,6.80
2022-09-16T05:51:50.659Z,6.50
2022-09-16T05:54:22.055Z,5.07
2022-09-16T05:56:49.698Z,6.68
2022-09-16T05:59:18.445Z,6.87
2022-09-16T06:01:46.975Z,5.03
2022-09-16T06:04:16.248Z,6.32
2022-09-16T06:06:46.139Z,5.90
2022-09-16T06:09:20.380Z,5.15
2022-09-16T06:11:51.660Z,5.45
2022-09-16T06:14:20.547Z,4.72
2022-09-16T06:16:48.193Z,5.82
2022-09-16T06:19:18.319Z,5.32
2022-09-16T06:21:47.435Z,5.78
2022-09-16T06:24:16.978Z,8.25
2022-09-16T06:26:46.331Z,5.18
2022-09-16T06:29:15.050Z,7.22
2022-09-16T06:31:43.336Z,4.97
2022-09-16T06:34:16.650Z,5.82
2022-09-16T06:36:45.541Z,4.78
2022-09-16T06:39:15.434Z,6.28
2022-09-16T06:41:43.141Z,6.37
2022-09-16T06:44:10.837Z,4.93
2022-09-16T06:46:38.678Z,5.80
2022-09-16T06:49:06.829Z,4.47
2022-09-16T06:51:35.663Z,5.22
2022-09-16T06:54:08.349Z,4.20
2022-09-16T06:56:38.689Z,4.55
2022-09-16T06:59:06.618Z,4.80
2022-09-16T07:01:34.944Z,4.22
2022-09-16T07:04:08.478Z,5.97
2022-09-16T07:07:08.740Z,5.70
2022-09-16T07:09:24.297Z,6.03
2022-09-16T07:11:51.970Z,6.68
2022-09-16T07:14:19.650Z,6.00
2022-09-16T07:16:47.715Z,5.15
2022-09-16T07:19:15.400Z,6.90
2022-09-16T07:21:43.006Z,5.07
2022-09-16T07:24:13.673Z,5.53
2022-09-16T07:26:43.267Z,4.37
2022-09-16T07:29:16.900Z,4.95
2022-09-16T07:31:45.087Z,6.87
2022-09-16T07:34:14.086Z,4.97
2022-09-16T07:36:47.962Z,4.60
2022-09-16T07:39:18.094Z,4.57
2022-09-16T07:41:47.561Z,4.87
2022-09-16T07:44:17.443Z,5.10
2022-09-16T07:46:45.816Z,6.82
2022-09-16T07:49:15.761Z,5.00
2022-09-16T07:51:44.293Z,4.50
2022-09-16T07:54:14.904Z,5.20
2022-09-16T07:56:43.993Z,7.10
2022-09-16T07:59:17.735Z,10.07
2022-09-16T08:01:47.088Z,5.80
2022-09-16T08:04:14.869Z,5.40
2022-09-16T08:06:42.624Z,5.97
2022-09-16T08:09:34.222Z,5.60
2022-09-16T08:11:58.034Z,5.90
2022-09-16T08:14:25.831Z,5.68
2022-09-16T08:16:53.554Z,5.93
2022-09-16T08:19:22.012Z,6.50
2022-09-16T08:21:49.862Z,8.35
2022-09-16T08:24:17.611Z,5.28
2022-09-16T08:26:45.474Z,6.15
2022-09-16T08:29:13.430Z,5.82
2022-09-16T08:31:41.368Z,6.03
2022-09-16T08:34:08.981Z,5.12
2022-09-16T08:36:36.738Z,5.60
2022-09-16T08:39:04.906Z,7.00
2022-09-16T08:41:44.512Z,10.57
2022-09-16T08:44:21.255Z,7.10
2022-09-16T08:47:02.786Z,6.62
2022-09-16T08:49:46.471Z,4.45
2022-09-16T08:52:35.296Z,5.25
2022-09-16T08:55:17.213Z,4.60
2022-09-16T08:58:08.315Z,5.20
2022-09-16T09:00:36.058Z,5.43
2022-09-16T09:03:09.417Z,5.10
2022-09-16T09:05:55.079Z,6.87
2022-09-16T09:08:34.563Z,4.20
2022-09-16T09:11:27.174Z,5.15
2022-09-16T09:14:16.453Z,4.35
2022-09-16T09:16:48.394Z,5.40
2022-09-16T09:19:29.576Z,4.35
2022-09-16T09:21:57.112Z,4.10
2022-09-16T09:25:03.401Z,4.05
2022-09-16T09:28:17.873Z,4.25
2022-09-16T09:30:57.867Z,6.57
2022-09-16T09:33:47.331Z,4.85
2022-09-16T09:36:33.480Z,6.00
2022-09-16T09:39:26.931Z,3.30
2022-09-16T09:42:10.666Z,3.42
2022-09-16T09:44:49.581Z,3.30
2022-09-16T09:48:13.210Z,2.87
2022-09-16T09:50:46.803Z,3.95
2022-09-16T09:53:20.173Z,4.70
2022-09-16T09:55:47.861Z,5.37
2022-09-16T09:58:40.589Z,3.70
2022-09-16T10:01:09.522Z,3.17
2022-09-16T10:03:39.076Z,4.18
2022-09-16T10:06:07.292Z,3.45
2022-09-16T10:08:47.260Z,3.92
2022-09-16T10:11:24.222Z,3.42
2022-09-16T10:13:54.757Z,4.85
2022-09-16T10:16:26.961Z,3.47
2022-09-16T10:19:03.349Z,5.55
2022-09-16T10:22:11.177Z,3.12
2022-09-16T10:24:41.580Z,3.70
2022-09-16T10:27:26.794Z,4.57
2022-09-16T10:30:24.135Z,3.80
2022-09-16T10:33:01.237Z,0.98
2022-09-16T10:35:31.316Z,1.10
2022-09-16T10:38:02.652Z,0.90
2022-09-16T10:40:31.973Z,1.42
2022-09-16T10:43:15.313Z,1.23
2022-09-16T10:45:52.022Z,1.35
2022-09-16T10:48:23.038Z,1.27
2022-09-16T10:51:01.462Z,1.10
2022-09-16T10:53:40.954Z,1.27
2022-09-16T10:56:23.338Z,0.98
2022-09-16T10:59:01.995Z,1.40
2022-09-16T11:01:48.250Z,0.75
2022-09-16T11:04:25.591Z,1.37
2022-09-16T11:07:02.051Z,1.00
2022-09-16T11:09:54.088Z,1.60
2022-09-16T11:12:52.307Z,1.87
2022-09-16T11:15:38.182Z,1.73
2022-09-16T11:18:16.263Z,0.75
2022-09-16T11:20:52.223Z,1.85
2022-09-16T11:23:31.456Z,1.52
2022-09-16T11:26:16.605Z,1.20
2022-09-16T11:29:07.917Z,1.40
2022-09-16T11:31:55.432Z,1.12
2022-09-16T11:34:48.732Z,1.02
2022-09-16T11:37:35.249Z,0.93
2022-09-16T11:40:09.058Z,1.10
2022-09-16T11:42:43.503Z,0.85
2022-09-16T11:45:48.888Z,2.15
2022-09-16T11:48:34.872Z,1.02
2022-09-16T11:51:06.712Z,1.35
2022-09-16T11:54:02.448Z,2.62
2022-09-16T11:56:38.190Z,1.40
2022-09-16T11:59:46.298Z,3.45
2022-09-16T12:02:36.665Z,1.73
2022-09-16T12:05:20.533Z,4.87
2022-09-16T12:08:27.023Z,2.17
2022-09-16T12:10:59.823Z,1.85
2022-09-16T12:13:38.382Z,1.92
2022-09-16T12:16:12.847Z,2.20
2022-09-16T12:18:45.520Z,2.78
2022-09-16T12:21:22.366Z,3.03
2022-09-16T12:24:02.984Z,2.58
2022-09-16T12:26:42.423Z,1.90
2022-09-16T12:29:21.216Z,2.37
2022-09-16T12:32:01.950Z,3.00
2022-09-16T12:34:40.831Z,2.45
2022-09-16T12:37:11.222Z,2.50
2022-09-16T12:39:39.568Z,3.40
2022-09-16T12:42:21.828Z,2.60
2022-09-16T12:45:17.024Z,2.25
2022-09-16T12:48:07.992Z,3.25
2022-09-16T12:50:44.459Z,2.78
2022-09-16T12:53:34.146Z,2.78
2022-09-16T12:56:11.415Z,2.40
2022-09-16T12:58:48.173Z,3.35
2022-09-16T13:01:26.772Z,2.87
2022-09-16T13:04:11.119Z,3.10
2022-09-16T13:06:46.505Z,2.33
2022-09-16T13:09:17.368Z,2.87
2022-09-16T13:14:52.672Z,2.40
2022-09-16T13:17:31.768Z,2.55
2022-09-16T13:20:21.093Z,2.22
2022-09-16T13:23:12.281Z,3.58
2022-09-16T13:26:00.727Z,2.40
2022-09-16T13:28:37.330Z,2.08
2022-09-16T13:31:14.274Z,3.30
2022-09-16T13:33:58.738Z,2.30
2022-09-16T13:36:30.854Z,2.00
2022-09-16T13:38:58.581Z,2.45
2022-09-16T13:41:35.395Z,2.17
2022-09-16T13:44:23.772Z,3.67
2022-09-16T13:46:51.591Z,2.30
2022-09-16T13:49:26.677Z,3.08
2022-09-16T13:51:55.014Z,2.90
2022-09-16T13:54:53.567Z,2.53
2022-09-16T13:57:39.565Z,2.20
2022-09-16T14:00:36.342Z,2.10
2022-09-16T14:03:28.457Z,3.20
2022-09-16T14:06:34.240Z,1.98
2022-09-16T14:09:17.159Z,2.28
2022-09-16T14:11:58.370Z,3.70
2022-09-16T14:14:47.273Z,3.35
2022-09-16T14:17:33.071Z,2.50
2022-09-16T14:20:02.158Z,2.45
2022-09-16T14:22:31.364Z,2.40
2022-09-16T14:25:07.185Z,4.87
2022-09-16T14:27:40.913Z,3.67
2022-09-16T14:30:18.250Z,2.53
2022-09-16T14:32:48.168Z,2.50
2022-09-16T14:35:23.423Z,2.95
2022-09-16T14:37:55.250Z,3.58
2022-09-16T14:40:26.338Z,3.25
2022-09-16T14:43:09.380Z,3.65
2022-09-16T14:45:39.315Z,3.83
2022-09-16T14:48:09.915Z,3.33
2022-09-16T14:50:40.995Z,4.32
2022-09-16T14:53:35.483Z,4.03
2022-09-16T14:56:05.214Z,3.50
2022-09-16T14:58:34.881Z,3.22
2022-09-16T15:01:12.479Z,2.87
2022-09-16T15:03:43.693Z,3.00
2022-09-16T15:06:17.351Z,3.58
2022-09-16T15:08:54.022Z,2.75
2022-09-16T15:11:47.111Z,4.50
2022-09-16T15:14:15.044Z,3.67
2022-09-16T15:16:48.061Z,2.90
2022-09-16T15:19:29.677Z,3.50
2022-09-16T15:21:58.310Z,3.78
2022-09-16T15:24:29.958Z,2.83
2022-09-16T15:26:59.443Z,4.05
2022-09-16T15:29:30.959Z,2.65
2022-09-16T15:32:22.805Z,4.10
2022-09-16T15:35:22.059Z,2.50
2022-09-16T15:37:49.829Z,2.72
2022-09-16T15:40:28.150Z,3.33
2022-09-16T15:43:05.578Z,3.30
2022-09-16T15:45:33.360Z,2.37
2022-09-16T15:48:19.208Z,3.12
2022-09-16T15:50:56.952Z,2.92
2022-09-16T15:53:30.756Z,3.28
2022-09-16T15:56:05.842Z,3.28
2022-09-16T15:58:33.477Z,3.22
2022-09-16T16:01:17.779Z,2.87
2022-09-16T16:03:45.389Z,3.37
2022-09-16T16:06:13.547Z,3.70
2022-09-16T16:08:53.291Z,3.87
2022-09-16T16:11:23.285Z,4.05
2022-09-16T16:13:56.556Z,2.40
2022-09-16T16:16:27.474Z,3.25
2022-09-16T16:18:55.748Z,2.67
2022-09-16T16:21:24.032Z,2.90
2022-09-16T16:23:51.689Z,4.40
2022-09-16T16:26:19.400Z,6.12
2022-09-16T16:28:47.167Z,3.60
2022-09-16T16:31:19.476Z,4.47
2022-09-16T16:33:48.786Z,2.90
2022-09-16T16:36:18.361Z,3.15
2022-09-16T16:38:47.390Z,2.55
2022-09-16T16:41:25.987Z,3.17
2022-09-16T16:43:53.695Z,2.70
2022-09-16T16:46:21.572Z,2.58
2022-09-16T16:48:49.207Z,2.50
2022-09-16T16:51:16.998Z,4.82
2022-09-16T16:53:49.499Z,2.60
2022-09-16T16:56:17.234Z,2.70
2022-09-16T16:58:44.884Z,3.60
2022-09-16T17:01:20.181Z,2.53
2022-09-16T17:03:51.848Z,3.97
2022-09-16T17:06:19.811Z,3.35
2022-09-16T17:08:47.455Z,2.90
2022-09-16T17:11:21.080Z,4.05
2022-09-16T17:13:52.458Z,4.00
2022-09-16T17:16:23.554Z,4.65
2022-09-16T17:18:52.040Z,4.50
2022-09-16T17:21:28.495Z,3.37
2022-09-16T17:23:56.869Z,3.47
2022-09-16T17:26:25.259Z,3.03
2022-09-16T17:28:54.264Z,3.67
2022-09-16T17:31:27.829Z,2.53
2022-09-16T17:33:57.501Z,3.28
2022-09-16T17:36:27.357Z,2.40
2022-09-16T17:38:59.944Z,4.18
2022-09-16T17:41:28.535Z,3.37
2022-09-16T17:43:57.621Z,3.50
2022-09-16T17:46:28.409Z,2.90
2022-09-16T17:49:09.556Z,3.53
2022-09-16T17:51:37.271Z,2.90
2022-09-16T17:54:05.428Z,3.30
2022-09-16T17:56:33.128Z,3.70
2022-09-16T17:59:00.820Z,3.60
2022-09-16T18:01:28.970Z,2.55
2022-09-16T18:03:57.807Z,2.62
2022-09-16T18:06:29.459Z,4.90
2022-09-16T18:08:57.226Z,2.90
2022-09-16T18:11:25.381Z,4.53
2022-09-16T18:14:00.420Z,2.85
2022-09-16T18:16:29.410Z,4.68
2022-09-16T18:19:00.437Z,2.87
2022-09-16T18:21:29.239Z,6.07
2022-09-16T18:24:03.427Z,4.18
2022-09-16T18:26:32.478Z,4.05
2022-09-16T18:29:10.123Z,2.97
2022-09-16T18:31:46.898Z,4.18
2022-09-16T18:34:15.393Z,3.85
2022-09-16T18:36:43.529Z,3.00
2022-09-16T18:39:15.381Z,4.47
2022-09-16T18:41:45.425Z,3.78
2022-09-16T18:44:18.882Z,5.00
2022-09-16T18:46:47.225Z,4.68
2022-09-16T18:49:17.067Z,3.62
2022-09-16T18:51:50.816Z,4.35
2022-09-16T18:54:29.690Z,4.87
2022-09-16T18:57:01.996Z,4.60
2022-09-16T18:59:35.166Z,3.45
2022-09-16T19:02:04.746Z,4.95
2022-09-16T19:04:37.925Z,3.83
2022-09-16T19:07:08.836Z,3.37
2022-09-16T19:09:39.319Z,3.85
2022-09-16T19:12:12.435Z,4.53
2022-09-16T19:14:41.990Z,5.10
2022-09-16T19:17:10.190Z,3.70
2022-09-16T19:19:37.853Z,4.37
2022-09-16T19:22:06.769Z,4.07
2022-09-16T19:24:35.206Z,4.62
2022-09-16T19:27:02.981Z,3.92
2022-09-16T19:29:30.631Z,3.95
2022-09-16T19:31:58.525Z,3.97
2022-09-16T19:34:26.321Z,4.07
2022-09-16T19:36:57.320Z,4.40
2022-09-16T19:39:25.824Z,5.45
2022-09-16T19:41:53.726Z,5.05
2022-09-16T19:44:21.473Z,4.60
2022-09-16T19:46:50.392Z,3.50
2022-09-16T19:49:21.722Z,5.32
2022-09-16T19:51:50.858Z,4.00
2022-09-16T19:54:18.978Z,4.32
2022-09-16T19:56:50.385Z,4.72
2022-09-16T19:59:18.265Z,3.45
2022-09-16T20:01:46.030Z,4.45
2022-09-16T20:04:13.841Z,5.18
2022-09-16T20:06:43.062Z,3.78
2022-09-16T20:09:12.870Z,3.67
2022-09-16T20:11:43.437Z,2.62
2022-09-16T20:14:20.186Z,2.97
2022-09-16T20:16:49.338Z,2.70
2022-09-16T20:19:18.966Z,3.42
2022-09-16T20:21:46.753Z,2.87
2022-09-16T20:24:16.987Z,2.83
2022-09-16T20:26:44.929Z,2.60
2022-09-16T20:29:12.593Z,3.53
2022-09-16T20:31:40.404Z,4.53
2022-09-16T20:34:08.141Z,2.85
2022-09-16T20:36:38.515Z,4.97
2022-09-16T20:39:07.259Z,3.97
2022-09-16T20:41:36.276Z,5.62
2022-09-16T20:44:05.685Z,2.58
2022-09-16T20:46:39.805Z,2.28
2022-09-16T20:49:11.543Z,2.10
2022-09-16T20:51:39.449Z,2.80
2022-09-16T20:54:09.948Z,2.53
2022-09-16T20:56:40.601Z,1.85
2022-09-16T20:59:10.159Z,2.10
2022-09-16T21:01:39.671Z,5.37
2022-09-16T21:04:12.316Z,3.05
2022-09-16T21:06:40.135Z,2.58
2022-09-16T21:09:10.581Z,2.08
2022-09-16T21:11:45.019Z,2.85
2022-09-16T21:14:16.642Z,4.15
2022-09-16T21:16:46.463Z,3.50
2022-09-16T21:19:14.916Z,2.45
2022-09-16T21:21:49.536Z,2.03
2022-09-16T21:24:17.567Z,1.55
2022-09-16T21:26:46.457Z,2.00
2022-09-16T21:29:21.885Z,2.60
2022-09-16T21:31:49.984Z,2.35
2022-09-16T21:34:20.444Z,1.20
2022-09-16T21:36:49.216Z,1.52
2022-09-16T21:39:18.247Z,3.30
2022-09-16T21:41:47.538Z,1.42
2022-09-16T21:44:15.943Z,2.12
2022-09-16T21:46:46.181Z,1.20
2022-09-16T21:49:23.774Z,0.80
2022-09-16T21:51:53.951Z,3.35
2022-09-16T21:54:22.311Z,1.92
2022-09-16T21:56:51.322Z,2.15
2022-09-16T21:59:22.775Z,1.17
2022-09-16T22:01:52.074Z,1.55
2022-09-16T22:04:22.799Z,1.60
2022-09-16T22:06:52.189Z,2.03
2022-09-16T22:09:19.915Z,1.37
2022-09-16T22:11:47.981Z,1.08
2022-09-16T22:14:15.818Z,1.85
2022-09-16T22:16:43.468Z,1.60
2022-09-16T22:19:14.739Z,1.90
2022-09-16T22:21:44.951Z,2.95
2022-09-16T22:24:13.595Z,2.45
2022-09-16T22:26:41.576Z,1.95
2022-09-16T22:29:10.465Z,2.67
2022-09-16T22:31:40.020Z,0.93
2022-09-16T22:34:08.484Z,3.67
2022-09-16T22:36:37.432Z,1.15
2022-09-16T22:39:08.687Z,1.98
2022-09-16T22:41:36.598Z,1.08
2022-09-16T22:44:04.947Z,3.20
2022-09-16T22:46:40.770Z,1.08
2022-09-16T22:49:08.541Z,1.17
2022-09-16T22:51:36.128Z,1.45
2022-09-16T22:54:03.794Z,1.95
2022-09-16T22:56:34.422Z,1.90
2022-09-16T22:59:03.797Z,1.67
2022-09-16T23:01:37.765Z,5.68
2022-09-16T23:04:07.362Z,2.67
2022-09-16T23:06:35.832Z,2.45
2022-09-16T23:09:05.000Z,1.15
2022-09-16T23:11:34.990Z,3.00
2022-09-16T23:14:03.042Z,1.33
2022-09-16T23:16:32.983Z,1.10
2022-09-16T23:19:03.221Z,2.58
2022-09-16T23:21:32.060Z,1.30
2022-09-16T23:24:02.200Z,1.77
2022-09-16T23:26:35.916Z,3.55
2022-09-16T23:29:06.275Z,2.17
2022-09-16T23:31:36.684Z,2.47
2022-09-16T23:34:08.849Z,1.52
2022-09-16T23:36:38.650Z,3.28
2022-09-16T23:39:07.851Z,1.67
2022-09-16T23:41:36.340Z,2.55
2022-09-16T23:44:04.374Z,2.45
2022-09-16T23:46:32.152Z,1.42
2022-09-16T23:49:00.463Z,1.75
2022-09-16T23:51:29.667Z,2.03
2022-09-16T23:53:58.447Z,1.90
2022-09-16T23:56:27.015Z,1.50
2022-09-16T23:58:55.139Z,1.85
